Time;durP1;ratioP1;P1;durP2;ratioP2;P2;SDS_P1;SDS_P2;PMS_P1;PMS_P2;Temp;Humidity;BMP_temperature;BMP_pressure;BME280_temperature;BME280_humidity;BME280_pressure;Samples;Min_cycle;Max_cycle;Signal;HPM_P1;HPM_P2
2023/03/09 00:02:22;;;;;;;2.75;1.25;;;9.90;58.20;;;;;;7366496;19;20014;-77
2023/03/09 00:04:51;;;;;;;5.38;1.30;;;9.90;54.40;;;;;;7362316;19;20018;-77
2023/03/09 00:07:24;;;;;;;4.68;1.70;;;9.90;54.40;;;;;;7370215;19;20079;-77
2023/03/09 00:09:54;;;;;;;4.55;1.70;;;9.90;54.30;;;;;;7392862;19;20211;-76
2023/03/09 00:12:24;;;;;;;3.00;1.23;;;9.90;54.20;;;;;;7422702;19;20011;-78
2023/03/09 00:14:57;;;;;;;2.63;1.27;;;9.80;54.30;;;;;;7388821;19;20014;-75
2023/03/09 00:17:26;;;;;;;4.40;1.40;;;9.90;55.00;;;;;;7363163;19;20014;-76
2023/03/09 00:20:01;;;;;;;5.03;1.70;;;10.00;52.80;;;;;;7361844;19;20007;-76
2023/03/09 00:22:31;;;;;;;3.92;1.65;;;10.00;53.20;;;;;;7363456;19;20022;-76
2023/03/09 00:25:00;;;;;;;4.63;1.58;;;10.00;53.30;;;;;;7363358;19;20342;-76
2023/03/09 00:27:30;;;;;;;2.83;1.65;;;10.00;53.50;;;;;;7383894;19;20017;-77
2023/03/09 00:30:03;;;;;;;3.28;1.58;;;10.00;55.10;;;;;;7360046;19;20409;-76
2023/03/09 00:32:33;;;;;;;3.58;1.52;;;10.10;53.50;;;;;;7365014;19;20014;-78
2023/03/09 00:35:03;;;;;;;3.20;1.52;;;10.00;54.00;;;;;;7361357;19;20046;-77
2023/03/09 00:37:33;;;;;;;4.97;1.88;;;9.80;58.30;;;;;;7363373;19;20014;-77
2023/03/09 00:40:05;;;;;;;3.50;1.75;;;9.70;59.50;;;;;;7359256;19;20022;-77
2023/03/09 00:42:35;;;;;;;3.08;1.40;;;9.80;60.90;;;;;;7386460;19;20014;-77
2023/03/09 00:45:09;;;;;;;3.15;1.83;;;9.80;61.30;;;;;;7360810;19;20014;-77
2023/03/09 00:47:39;;;;;;;5.72;1.92;;;9.80;60.70;;;;;;7361522;19;20621;-77
2023/03/09 00:50:12;;;;;;;2.67;1.40;;;9.70;60.60;;;;;;7360398;19;20050;-78
2023/03/09 00:52:42;;;;;;;2.13;1.30;;;9.70;60.90;;;;;;7361828;19;20014;-78
2023/03/09 00:55:13;;;;;;;1.55;0.90;;;9.70;58.20;;;;;;7361588;19;20630;-78
2023/03/09 00:57:42;;;;;;;2.60;1.00;;;9.70;57.50;;;;;;7391281;19;20093;-77
2023/03/09 01:00:16;;;;;;;2.13;0.90;;;9.80;55.20;;;;;;7386355;19;20086;-77
2023/03/09 01:02:46;;;;;;;2.03;0.98;;;9.80;54.20;;;;;;7392772;19;20478;-77
2023/03/09 01:05:15;;;;;;;8.43;1.65;;;9.80;54.20;;;;;;7389520;19;20018;-77
2023/03/09 01:07:45;;;;;;;2.00;0.82;;;9.80;53.20;;;;;;7391219;19;20478;-76
2023/03/09 01:10:15;;;;;;;1.10;0.60;;;9.90;51.00;;;;;;7401004;19;20010;-76
2023/03/09 01:12:45;;;;;;;1.05;0.63;;;9.90;46.20;;;;;;7406540;19;20014;-76
2023/03/09 01:15:18;;;;;;;0.82;0.40;;;9.90;46.10;;;;;;7403277;19;20014;-76
2023/03/09 01:17:47;;;;;;;1.45;0.70;;;10.00;39.40;;;;;;7401364;19;20011;-76
2023/03/09 01:20:17;;;;;;;2.08;0.57;;;10.00;38.60;;;;;;7400795;19;20002;-76
2023/03/09 01:22:47;;;;;;;1.15;0.50;;;10.00;37.70;;;;;;7405302;19;20470;-73
2023/03/09 01:25:17;;;;;;;1.00;0.35;;;10.00;32.80;;;;;;7403471;19;20017;-75
2023/03/09 01:27:47;;;;;;;2.58;0.45;;;10.10;28.90;;;;;;7402401;19;20382;-75
2023/03/09 01:30:20;;;;;;;2.17;0.50;;;10.00;28.90;;;;;;7401644;19;20085;-74
2023/03/09 01:32:49;;;;;;;0.82;0.50;;;9.90;29.80;;;;;;7404465;19;20463;-75
2023/03/09 01:35:20;;;;;;;1.75;0.30;;;9.90;28.80;;;;;;7402999;19;20343;-75
2023/03/09 01:37:51;;;;;;;0.70;0.38;;;9.90;28.60;;;;;;7402165;19;20042;-75
2023/03/09 01:40:24;;;;;;;0.77;0.40;;;10.00;25.30;;;;;;7399718;19;20014;-75
2023/03/09 01:42:57;;;;;;;0.80;0.30;;;9.90;26.10;;;;;;7405969;19;20006;-74
2023/03/09 01:45:57;;;;;;;2.15;0.50;;;9.90;26.40;;;;;;7402382;19;20022;-75
2023/03/09 01:48:30;;;;;;;1.00;0.43;;;10.00;23.40;;;;;;7400359;19;20090;-75
2023/03/09 01:51:00;;;;;;;2.25;0.82;;;10.00;22.50;;;;;;7403590;19;20085;-75
2023/03/09 01:53:29;;;;;;;1.02;0.38;;;9.90;23.90;;;;;;7405804;19;20084;-75
2023/03/09 01:56:01;;;;;;;1.27;0.40;;;9.90;22.80;;;;;;7402461;19;20478;-75
2023/03/09 01:58:33;;;;;;;1.38;0.60;;;9.80;23.00;;;;;;7398006;19;20406;-75
2023/03/09 02:01:02;;;;;;;1.48;0.30;;;9.70;23.60;;;;;;7406192;19;20011;-75
2023/03/09 02:03:39;;;;;;;1.08;0.40;;;9.70;23.00;;;;;;7405950;19;20014;-74
2023/03/09 02:06:14;;;;;;;2.45;0.40;;;9.60;23.50;;;;;;7401646;19;20038;-74
2023/03/09 02:08:51;;;;;;;0.98;0.20;;;9.70;22.20;;;;;;7400684;19;20350;-74
2023/03/09 02:11:21;;;;;;;0.93;0.40;;;9.70;22.60;;;;;;7403768;19;20018;-75
2023/03/09 02:13:53;;;;;;;2.80;0.40;;;9.80;20.50;;;;;;7401436;19;20020;-74
2023/03/09 02:16:23;;;;;;;1.58;0.30;;;9.80;18.90;;;;;;7402071;19;20370;-74
2023/03/09 02:18:55;;;;;;;0.70;0.30;;;10.10;11.10;;;;;;7399028;19;20090;-75
2023/03/09 02:21:34;;;;;;;3.22;0.50;;;10.10;12.20;;;;;;7392574;19;20015;-75
2023/03/09 02:24:13;;;;;;;0.55;0.20;;;10.00;12.40;;;;;;7394225;19;20018;-75
2023/03/09 02:26:47;;;;;;;0.55;0.30;;;10.00;12.30;;;;;;7394424;19;20018;-75
2023/03/09 02:29:19;;;;;;;0.88;0.20;;;9.90;14.00;;;;;;7393151;19;20018;-74
2023/03/09 02:31:49;;;;;;;1.63;0.40;;;9.90;13.10;;;;;;7397875;19;20007;-74
2023/03/09 02:34:19;;;;;;;0.47;0.25;;;9.90;11.80;;;;;;7394446;19;20007;-74
2023/03/09 02:36:49;;;;;;;3.10;0.40;;;9.90;10.80;;;;;;7393320;19;20086;-74
2023/03/09 02:39:25;;;;;;;3.03;0.32;;;9.90;12.10;;;;;;7391474;19;20031;-74
2023/03/09 02:41:59;;;;;;;1.70;0.20;;;9.80;12.10;;;;;;7394833;19;20474;-74
2023/03/09 02:44:32;;;;;;;1.10;0.20;;;9.80;12.20;;;;;;7393681;19;20022;-73
2023/03/09 02:47:02;;;;;;;0.50;0.20;;;9.90;10.70;;;;;;7392464;19;20365;-74
2023/03/09 02:49:32;;;;;;;1.95;0.60;;;9.80;11.80;;;;;;7389275;19;20020;-74
2023/03/09 02:52:02;;;;;;;1.20;0.20;;;9.80;12.10;;;;;;7396562;19;20014;-74
2023/03/09 02:54:32;;;;;;;0.30;0.20;;;9.80;11.50;;;;;;7393973;19;20419;-73
2023/03/09 02:57:02;;;;;;;1.75;0.20;;;9.80;11.10;;;;;;7393575;19;20021;-74
2023/03/09 02:59:36;;;;;;;0.45;0.30;;;9.80;12.10;;;;;;7389709;19;20098;-74
2023/03/09 03:02:06;;;;;;;0.88;0.40;;;9.80;12.50;;;;;;7394303;19;20042;-73
2023/03/09 03:04:36;;;;;;;0.95;0.30;;;9.80;12.70;;;;;;7393445;19;20359;-73
2023/03/09 03:07:06;;;;;;;0.25;0.15;;;9.80;13.10;;;;;;7392395;19;20027;-72
2023/03/09 03:09:36;;;;;;;0.25;0.20;;;9.90;12.80;;;;;;7390049;19;20010;-73
2023/03/09 03:12:06;;;;;;;0.50;0.20;;;10.00;12.30;;;;;;7396081;19;20011;-72
2023/03/09 03:14:39;;;;;;;1.77;0.30;;;10.00;13.80;;;;;;7392033;19;20017;-72
2023/03/09 03:17:09;;;;;;;0.43;0.17;;;10.00;15.00;;;;;;7392481;19;20502;-72
2023/03/09 03:19:38;;;;;;;1.10;0.20;;;10.00;16.60;;;;;;7389463;19;20463;-73
2023/03/09 03:22:08;;;;;;;0.60;0.30;;;9.90;20.50;;;;;;7393626;19;20015;-72
2023/03/09 03:24:39;;;;;;;1.02;0.30;;;9.80;22.40;;;;;;7392188;19;20017;-72
2023/03/09 03:27:10;;;;;;;1.13;0.20;;;9.60;21.70;;;;;;7392764;19;20503;-73
2023/03/09 03:29:42;;;;;;;0.50;0.20;;;9.30;18.80;;;;;;7392229;19;20435;-72
2023/03/09 03:32:12;;;;;;;0.70;0.20;;;9.20;18.70;;;;;;7396372;19;20016;-73
2023/03/09 03:34:42;;;;;;;0.68;0.28;;;9.10;21.30;;;;;;7391364;19;20513;-73
2023/03/09 03:37:12;;;;;;;0.73;0.20;;;9.00;21.40;;;;;;7393175;19;20022;-73
2023/03/09 03:39:42;;;;;;;0.30;0.20;;;9.00;21.00;;;;;;7389857;19;20021;-73
2023/03/09 03:42:12;;;;;;;0.60;0.30;;;8.90;22.10;;;;;;7390813;19;20598;-73
2023/03/09 03:44:44;;;;;;;1.00;0.30;;;9.00;21.20;;;;;;7392017;19;20010;-73
2023/03/09 03:47:14;;;;;;;1.95;0.60;;;9.00;21.30;;;;;;7421406;19;20013;-72
2023/03/09 03:49:44;;;;;;;2.47;0.30;;;9.00;22.10;;;;;;7421902;19;20015;-71
2023/03/09 03:52:14;;;;;;;3.60;0.63;;;9.00;23.10;;;;;;7430264;19;20007;-73
2023/03/09 03:54:43;;;;;;;1.85;0.50;;;9.10;22.20;;;;;;7408212;19;20030;-72
2023/03/09 03:57:13;;;;;;;3.17;0.73;;;9.10;22.10;;;;;;7396247;19;20014;-73
2023/03/09 03:59:45;;;;;;;1.63;0.95;;;9.10;21.40;;;;;;7388580;19;20020;-72
2023/03/09 04:02:15;;;;;;;2.08;0.60;;;9.10;22.20;;;;;;7393838;19;20463;-72
2023/03/09 04:04:45;;;;;;;1.42;0.50;;;9.10;22.30;;;;;;7389932;19;20034;-73
2023/03/09 04:07:15;;;;;;;3.10;0.80;;;9.10;22.20;;;;;;7390966;19;20022;-72
2023/03/09 04:09:44;;;;;;;3.20;0.80;;;9.00;22.30;;;;;;7386379;19;20451;-72
2023/03/09 04:12:14;;;;;;;1.60;0.68;;;9.10;22.70;;;;;;7393731;19;20775;-71
2023/03/09 04:14:47;;;;;;;2.40;0.90;;;9.10;21.70;;;;;;7390128;19;20038;-72
2023/03/09 04:17:16;;;;;;;4.68;0.77;;;9.10;20.40;;;;;;7390882;19;20014;-72
2023/03/09 04:19:46;;;;;;;4.35;1.20;;;9.10;20.30;;;;;;7386769;19;20014;-72
2023/03/09 04:22:16;;;;;;;3.97;1.08;;;9.10;20.70;;;;;;7393642;19;20486;-72
2023/03/09 04:24:46;;;;;;;5.45;1.17;;;9.10;20.20;;;;;;7389324;19;20018;-72
2023/03/09 04:27:15;;;;;;;6.38;1.38;;;9.20;18.20;;;;;;7389384;19;20026;-73
2023/03/09 04:29:48;;;;;;;4.68;1.15;;;9.20;19.00;;;;;;7388749;19;20487;-73
2023/03/09 04:32:18;;;;;;;5.22;1.48;;;9.20;18.30;;;;;;7390244;19;20495;-73
2023/03/09 04:34:47;;;;;;;3.25;1.02;;;9.20;17.20;;;;;;7388578;19;20031;-72
2023/03/09 04:37:17;;;;;;;4.65;1.30;;;9.20;18.30;;;;;;7389599;19;20020;-72
2023/03/09 04:39:47;;;;;;;3.30;1.20;;;9.20;16.70;;;;;;7386739;19;20010;-71
2023/03/09 04:42:17;;;;;;;4.57;1.23;;;9.20;15.80;;;;;;7386422;19;20028;-72
2023/03/09 04:44:49;;;;;;;7.72;2.13;;;9.20;15.30;;;;;;7388642;19;20017;-72
2023/03/09 04:47:19;;;;;;;7.07;1.10;;;9.20;15.20;;;;;;7390072;19;20367;-72
2023/03/09 04:49:49;;;;;;;2.05;1.02;;;9.20;14.00;;;;;;7385668;19;20092;-71
2023/03/09 04:52:19;;;;;;;4.55;1.30;;;9.20;13.60;;;;;;7389638;19;20006;-71
2023/03/09 04:54:49;;;;;;;5.57;1.13;;;9.20;12.90;;;;;;7389296;19;20081;-72
2023/03/09 04:57:19;;;;;;;7.65;1.33;;;9.20;12.50;;;;;;7394215;19;20407;-72
2023/03/09 04:59:51;;;;;;;5.03;1.65;;;9.20;12.80;;;;;;7390458;19;20025;-72
2023/03/09 05:02:21;;;;;;;5.07;1.50;;;9.30;11.00;;;;;;7390525;19;20018;-72
2023/03/09 05:04:51;;;;;;;7.88;1.60;;;9.20;10.40;;;;;;7388371;19;20069;-72
2023/03/09 05:07:21;;;;;;;6.45;1.50;;;9.20;10.90;;;;;;7388999;19;20477;-72
2023/03/09 05:09:50;;;;;;;8.40;1.67;;;9.20;9.80;;;;;;7386118;19;20379;-72
2023/03/09 05:12:20;;;;;;;6.95;1.38;;;9.20;10.40;;;;;;7388361;19;20011;-71
2023/03/09 05:14:53;;;;;;;6.35;1.58;;;9.20;8.80;;;;;;7388626;19;20027;-71
2023/03/09 05:17:22;;;;;;;7.65;1.45;;;9.20;8.80;;;;;;7388617;19;20398;-71
2023/03/09 05:19:52;;;;;;;4.30;1.38;;;9.10;9.50;;;;;;7384986;19;20025;-72
2023/03/09 05:22:22;;;;;;;9.85;2.97;;;9.10;9.60;;;;;;7387771;19;20019;-72
2023/03/09 05:24:52;;;;;;;8.90;1.83;;;9.00;11.20;;;;;;7388953;19;20010;-73
2023/03/09 05:27:22;;;;;;;5.28;1.55;;;9.00;11.00;;;;;;7387425;19;20014;-72
2023/03/09 05:29:56;;;;;;;4.82;1.42;;;9.10;9.10;;;;;;7386975;19;20006;-72
2023/03/09 05:32:26;;;;;;;7.30;1.67;;;9.00;9.60;;;;;;7388457;19;20483;-72
2023/03/09 05:34:57;;;;;;;8.50;1.90;;;9.00;10.20;;;;;;7387693;19;20002;-72
2023/03/09 05:37:27;;;;;;;4.88;1.67;;;9.00;11.00;;;;;;7387360;19;20372;-72
2023/03/09 05:39:56;;;;;;;5.95;1.40;;;9.10;11.10;;;;;;7385594;19;20459;-72
2023/03/09 05:42:26;;;;;;;10.43;2.17;;;9.10;10.10;;;;;;7386096;19;20010;-72
2023/03/09 05:44:59;;;;;;;4.78;1.38;;;9.30;8.10;;;;;;7386653;19;20077;-72
2023/03/09 05:47:29;;;;;;;3.60;1.55;;;9.30;8.10;;;;;;7387210;19;20042;-73
2023/03/09 05:49:59;;;;;;;7.45;2.00;;;9.20;8.00;;;;;;7382447;19;20478;-73
2023/03/09 05:52:29;;;;;;;5.45;1.70;;;9.30;7.30;;;;;;7387566;19;20088;-72
2023/03/09 05:54:58;;;;;;;6.95;1.27;;;9.30;8.10;;;;;;7389269;19;20014;-73
2023/03/09 05:57:28;;;;;;;7.32;2.00;;;9.30;8.10;;;;;;7393332;19;20482;-72
2023/03/09 06:00:00;;;;;;;7.53;2.20;;;9.30;8.60;;;;;;7390203;19;20018;-72
2023/03/09 06:02:30;;;;;;;6.13;2.20;;;9.30;8.10;;;;;;7393686;19;20085;-73
2023/03/09 06:05:00;;;;;;;5.68;1.63;;;9.30;8.10;;;;;;7394210;19;20031;-73
2023/03/09 06:07:31;;;;;;;6.63;2.03;;;9.30;8.90;;;;;;7393777;19;20478;-73
2023/03/09 06:10:01;;;;;;;9.65;1.85;;;9.20;9.40;;;;;;7391521;19;20013;-73
2023/03/09 06:12:31;;;;;;;10.10;2.60;;;9.20;9.60;;;;;;7394651;19;20010;-73
2023/03/09 06:15:03;;;;;;;8.82;2.08;;;9.30;9.40;;;;;;7394257;19;20527;-72
2023/03/09 06:17:33;;;;;;;8.27;2.42;;;9.20;10.10;;;;;;7393059;19;20011;-73
2023/03/09 06:20:03;;;;;;;6.28;2.50;;;9.30;8.90;;;;;;7391968;19;20462;-73
2023/03/09 06:22:33;;;;;;;5.28;1.52;;;9.30;9.30;;;;;;7393893;19;20015;-73
2023/03/09 06:25:03;;;;;;;9.88;1.60;;;9.30;8.90;;;;;;7393104;19;20014;-71
2023/03/09 06:27:36;;;;;;;9.45;1.83;;;9.30;9.40;;;;;;7392882;19;20459;-73
2023/03/09 06:30:10;;;;;;;6.43;1.90;;;9.40;8.20;;;;;;7392769;19;20442;-73
2023/03/09 06:32:39;;;;;;;7.57;1.80;;;9.50;8.20;;;;;;7392703;19;20015;-73
2023/03/09 06:35:10;;;;;;;7.20;2.08;;;9.50;7.60;;;;;;7393267;19;20034;-73
2023/03/09 06:37:39;;;;;;;8.30;2.20;;;9.50;8.20;;;;;;7393053;19;20070;-72
2023/03/09 06:40:12;;;;;;;5.93;1.77;;;9.50;8.20;;;;;;7389275;19;20018;-73
2023/03/09 06:42:42;;;;;;;7.57;2.20;;;9.60;7.70;;;;;;7391992;19;20018;-73
2023/03/09 06:45:15;;;;;;;7.88;1.98;;;9.50;7.40;;;;;;7393345;19;20088;-73
2023/03/09 06:47:45;;;;;;;6.30;2.13;;;9.60;7.20;;;;;;7392986;19;20029;-73
2023/03/09 06:50:16;;;;;;;7.03;1.75;;;9.60;7.60;;;;;;7388268;19;20122;-72
2023/03/09 06:52:45;;;;;;;4.05;1.33;;;9.60;6.40;;;;;;7393621;19;20021;-72
2023/03/09 06:55:15;;;;;;;6.32;1.85;;;9.60;5.50;;;;;;7391406;19;20481;-72
2023/03/09 06:57:46;;;;;;;10.73;1.92;;;9.60;6.20;;;;;;7393143;19;20081;-72
2023/03/09 07:00:19;;;;;;;6.57;2.15;;;9.60;6.40;;;;;;7390763;19;20529;-73
2023/03/09 07:02:49;;;;;;;7.77;2.00;;;9.60;6.20;;;;;;7392440;19;20006;-73
2023/03/09 07:05:19;;;;;;;11.68;2.53;;;9.70;5.70;;;;;;7392942;19;20254;-72
2023/03/09 07:07:49;;;;;;;8.35;3.50;;;9.60;5.00;;;;;;7393136;19;20069;-72
2023/03/09 07:10:19;;;;;;;10.15;2.20;;;9.80;3.00;;;;;;7390028;19;20014;-72
2023/03/09 07:12:50;;;;;;;15.10;2.03;;;9.80;1.60;;;;;;7394467;19;20011;-72
2023/03/09 07:15:22;;;;;;;9.40;1.60;;;9.90;1.00;;;;;;7394202;19;20683;-72
2023/03/09 07:17:52;;;;;;;8.15;1.75;;;9.90;1.00;;;;;;7392539;19;20025;-72
2023/03/09 07:20:24;;;;;;;6.05;1.30;;;10.00;1.00;;;;;;7388339;19;20014;-72
2023/03/09 07:22:53;;;;;;;6.50;1.35;;;10.10;1.00;;;;;;7393519;19;20021;-72
2023/03/09 07:25:23;;;;;;;7.78;1.50;;;10.20;1.00;;;;;;7421975;19;20007;-73
2023/03/09 07:27:53;;;;;;;5.93;1.50;;;10.30;1.00;;;;;;7425099;19;20011;-72
2023/03/09 07:30:26;;;;;;;5.13;1.40;;;10.40;1.00;;;;;;7420028;19;20017;-71
2023/03/09 07:32:56;;;;;;;6.65;1.75;;;10.40;1.00;;;;;;7402181;19;19998;-70
2023/03/09 07:35:25;;;;;;;5.20;1.67;;;10.40;1.00;;;;;;7394193;19;20085;-73
2023/03/09 07:37:56;;;;;;;4.35;1.27;;;10.30;1.00;;;;;;7392307;19;20408;-72
2023/03/09 07:40:25;;;;;;;6.55;1.58;;;10.30;1.00;;;;;;7389395;19;20086;-73
2023/03/09 07:42:55;;;;;;;9.68;2.03;;;10.30;1.00;;;;;;7391789;19;20010;-73
2023/03/09 07:45:28;;;;;;;8.23;2.10;;;10.30;1.00;;;;;;7392079;19;20006;-72
2023/03/09 07:47:57;;;;;;;7.88;1.83;;;10.40;1.00;;;;;;7391142;19;20384;-72
2023/03/09 07:50:27;;;;;;;7.00;1.58;;;10.50;1.00;;;;;;7388230;19;20014;-72
2023/03/09 07:52:57;;;;;;;5.88;1.50;;;10.60;1.00;;;;;;7391422;19;20014;-71
2023/03/09 07:55:29;;;;;;;7.60;1.70;;;10.70;1.00;;;;;;7390768;19;20010;-73
2023/03/09 07:57:59;;;;;;;7.63;1.58;;;10.80;1.00;;;;;;7391519;19;20553;-73
2023/03/09 08:00:32;;;;;;;5.57;1.30;;;10.90;1.00;;;;;;7387543;19;20014;-72
2023/03/09 08:03:03;;;;;;;9.88;1.42;;;10.90;1.00;;;;;;7389605;19;20014;-73
2023/03/09 08:05:33;;;;;;;5.75;1.55;;;11.10;1.00;;;;;;7391168;19;20078;-72
2023/03/09 08:08:04;;;;;;;6.97;2.10;;;11.10;1.00;;;;;;7391373;19;20864;-73
2023/03/09 08:10:34;;;;;;;7.93;1.20;;;11.20;1.00;;;;;;7388062;19;20482;-74
2023/03/09 08:13:04;;;;;;;4.82;1.20;;;11.20;1.00;;;;;;7391274;19;20011;-71
2023/03/09 08:15:36;;;;;;;5.45;2.00;;;11.30;1.00;;;;;;7390386;19;20015;-72
2023/03/09 08:18:06;;;;;;;6.95;1.17;;;11.40;1.00;;;;;;7387472;19;20018;-72
2023/03/09 08:20:36;;;;;;;6.00;1.92;;;11.50;1.00;;;;;;7387105;19;20036;-71
2023/03/09 08:23:06;;;;;;;6.40;1.13;;;11.60;1.00;;;;;;7394183;19;20018;-73
2023/03/09 08:25:36;;;;;;;2.90;1.27;;;11.70;1.00;;;;;;7391040;19;20014;-73
2023/03/09 08:28:06;;;;;;;5.93;1.63;;;11.70;1.00;;;;;;7392823;19;20058;-73
2023/03/09 08:30:40;;;;;;;9.07;1.67;;;11.70;1.00;;;;;;7391192;19;20022;-71
2023/03/09 08:33:10;;;;;;;6.57;1.60;;;11.80;1.00;;;;;;7394069;19;20021;-72
2023/03/09 08:35:40;;;;;;;12.82;1.80;;;11.90;1.00;;;;;;7394309;19;20088;-72
2023/03/09 08:38:09;;;;;;;8.65;1.92;;;11.90;1.00;;;;;;7389273;19;20015;-72
2023/03/09 08:40:41;;;;;;;7.10;1.75;;;12.00;1.00;;;;;;7388627;19;20014;-72
2023/03/09 08:43:13;;;;;;;7.82;1.45;;;11.90;1.00;;;;;;7388520;19;20671;-71
2023/03/09 08:45:45;;;;;;;7.10;1.58;;;11.80;1.00;;;;;;7390429;19;20014;-73
2023/03/09 08:48:15;;;;;;;6.50;1.10;;;11.60;1.00;;;;;;7391504;19;20023;-73
2023/03/09 08:50:45;;;;;;;5.88;1.58;;;11.60;1.00;;;;;;7396608;19;20015;-72
2023/03/09 08:53:15;;;;;;;5.07;1.05;;;11.50;1.00;;;;;;7389440;19;20030;-73
2023/03/09 08:55:44;;;;;;;6.13;1.45;;;11.50;1.00;;;;;;7391715;19;20010;-72
2023/03/09 08:58:14;;;;;;;5.95;1.40;;;11.50;1.00;;;;;;7389866;19;20010;-71
2023/03/09 09:00:47;;;;;;;4.70;1.27;;;11.50;1.00;;;;;;7389013;19;20347;-72
2023/03/09 09:03:17;;;;;;;7.65;1.40;;;11.50;1.00;;;;;;7392224;19;20086;-72
2023/03/09 09:05:48;;;;;;;5.28;1.63;;;11.50;1.00;;;;;;7396679;19;20014;-73
2023/03/09 09:08:19;;;;;;;4.55;1.08;;;11.40;1.00;;;;;;7391936;19;20031;-73
2023/03/09 09:10:49;;;;;;;6.18;1.52;;;11.30;1.00;;;;;;7388572;19;20114;-72
2023/03/09 09:13:19;;;;;;;5.32;1.05;;;11.50;1.00;;;;;;7389129;19;20359;-72
2023/03/09 09:15:57;;;;;;;4.78;1.02;;;11.60;1.00;;;;;;7388797;19;20023;-73
2023/03/09 09:18:27;;;;;;;4.13;0.80;;;11.70;1.00;;;;;;7389260;19;20023;-73
2023/03/09 09:21:10;;;;;;;2.20;0.70;;;11.60;1.00;;;;;;7391876;19;20003;-72
2023/03/09 09:23:42;;;;;;;3.00;0.70;;;11.50;1.00;;;;;;7389011;19;20013;-72
2023/03/09 09:26:14;;;;;;;4.13;0.98;;;11.40;1.00;;;;;;7389766;19;20011;-72
2023/03/09 09:28:47;;;;;;;2.92;0.80;;;11.50;1.00;;;;;;7390622;19;20063;-72
2023/03/09 09:31:23;;;;;;;4.45;0.90;;;11.40;1.00;;;;;;7399488;19;20015;-73
2023/03/09 09:33:53;;;;;;;3.08;0.77;;;11.50;1.00;;;;;;7399658;19;20010;-72
2023/03/09 09:36:24;;;;;;;4.38;0.88;;;11.60;1.00;;;;;;7397380;19;20017;-72
2023/03/09 09:38:55;;;;;;;3.05;0.60;;;11.70;1.00;;;;;;7398926;19;20043;-73
2023/03/09 09:41:29;;;;;;;3.20;1.10;;;11.80;1.00;;;;;;7399810;19;20010;-72
2023/03/09 09:44:02;;;;;;;;;;;11.90;1.00;;;;;;7398480;19;20011;-72
2023/03/09 09:46:39;;;;;;;7.15;1.63;;;11.80;1.00;;;;;;7396879;19;20008;-72
2023/03/09 09:49:16;;;;;;;4.78;0.90;;;12.00;1.00;;;;;;7396790;19;20018;-73
2023/03/09 09:52:11;;;;;;;4.88;1.33;;;12.00;1.00;;;;;;7401792;19;20024;-73
2023/03/09 09:54:47;;;;;;;6.82;1.05;;;12.00;1.00;;;;;;7398521;19;20017;-73
2023/03/09 09:57:22;;;;;;;4.68;1.35;;;12.00;1.00;;;;;;7396829;19;20021;-73
2023/03/09 09:59:58;;;;;;;6.22;1.00;;;12.00;1.00;;;;;;7393885;19;20021;-73
2023/03/09 10:02:53;;;;;;;5.60;1.90;;;12.10;1.00;;;;;;7396057;19;20014;-73
2023/03/09 10:05:29;;;;;;;3.55;1.05;;;12.10;1.00;;;;;;7398473;19;20006;-73
2023/03/09 10:08:06;;;;;;;3.90;1.00;;;12.10;1.00;;;;;;7395203;19;20018;-72
2023/03/09 10:10:36;;;;;;;3.38;1.05;;;11.90;1.00;;;;;;7393969;19;20018;-72
2023/03/09 10:13:16;;;;;;;4.35;1.00;;;11.90;1.00;;;;;;7396453;19;20015;-73
2023/03/09 10:15:47;;;;;;;3.65;1.13;;;11.80;1.00;;;;;;7395698;19;20479;-73
2023/03/09 10:18:32;;;;;;;5.45;1.33;;;11.70;1.00;;;;;;7394392;19;20343;-71
2023/03/09 10:21:04;;;;;;;4.68;1.08;;;11.70;1.00;;;;;;7395897;19;20018;-72
2023/03/09 10:23:35;;;;;;;1.77;0.70;;;11.60;1.00;;;;;;7392927;19;20014;-72
2023/03/09 10:26:17;;;;;;;3.88;1.20;;;11.60;1.00;;;;;;7392554;19;20038;-71
2023/03/09 10:28:51;;;;;;;6.13;1.35;;;11.50;1.00;;;;;;7393750;19;20145;-72
2023/03/09 10:31:25;;;;;;;2.70;0.73;;;11.60;1.00;;;;;;7395818;19;20494;-73
2023/03/09 10:34:06;;;;;;;3.22;0.82;;;11.60;1.00;;;;;;7395521;19;20082;-71
2023/03/09 10:36:43;;;;;;;2.25;0.80;;;11.70;1.00;;;;;;7393988;19;20451;-71
2023/03/09 10:39:16;;;;;;;3.45;1.00;;;11.70;1.00;;;;;;7392359;19;20061;-72
2023/03/09 10:41:46;;;;;;;4.00;0.90;;;12.00;1.00;;;;;;7337434;19;20021;-72
2023/03/09 10:44:18;;;;;;;2.90;0.82;;;12.30;1.00;;;;;;7277467;19;20070;-72
2023/03/09 10:46:59;;;;;;;3.92;0.93;;;12.70;1.00;;;;;;7367059;19;20014;-71
2023/03/09 10:49:35;;;;;;;1.77;0.60;;;12.60;1.00;;;;;;7363263;19;20082;-71
2023/03/09 10:52:07;;;;;;;2.08;0.60;;;12.70;1.00;;;;;;7390278;19;20010;-72
2023/03/09 10:54:39;;;;;;;2.88;0.57;;;12.50;1.00;;;;;;7371312;19;20010;-72
2023/03/09 10:57:24;;;;;;;4.88;0.73;;;12.60;1.00;;;;;;7367975;19;20019;-71
2023/03/09 10:59:59;;;;;;;5.75;0.93;;;12.80;1.00;;;;;;7359969;19;20025;-72
2023/03/09 11:02:33;;;;;;;1.88;0.80;;;12.80;1.00;;;;;;7378165;19;20010;-71
2023/03/09 11:05:18;;;;;;;;;;;12.80;1.00;;;;;;7397680;19;20010;-71
2023/03/09 11:07:55;;;;;;;9.88;5.25;;;13.10;1.00;;;;;;7399866;19;19906;-71
2023/03/09 11:10:30;;;;;;;4.20;0.77;;;13.40;1.00;;;;;;7375071;19;20035;-70
2023/03/09 11:13:02;;;;;;;4.93;0.98;;;13.30;1.00;;;;;;7390372;19;20033;-72
2023/03/09 11:15:34;;;;;;;5.63;0.98;;;13.30;1.00;;;;;;7366292;19;20010;-71
2023/03/09 11:18:05;;;;;;;2.75;0.90;;;13.50;1.00;;;;;;7365322;19;20026;-71
2023/03/09 11:20:36;;;;;;;4.93;1.00;;;13.50;1.00;;;;;;7364120;19;20458;-71
2023/03/09 11:23:20;;;;;;;3.25;1.00;;;13.50;1.00;;;;;;7367798;19;20022;-68
2023/03/09 11:26:04;;;;;;;2.92;1.10;;;13.70;1.00;;;;;;7367630;19;20011;-68
2023/03/09 11:28:43;;;;;;;3.97;1.10;;;13.50;1.00;;;;;;7362885;19;20014;-67
2023/03/09 11:31:18;;;;;;;5.32;1.05;;;13.60;1.00;;;;;;7387463;19;20006;-69
2023/03/09 11:33:49;;;;;;;7.13;1.10;;;13.70;1.00;;;;;;7364368;19;20020;-70
2023/03/09 11:36:23;;;;;;;2.95;0.95;;;13.70;1.00;;;;;;7362834;19;20014;-71
2023/03/09 11:38:57;;;;;;;2.95;0.70;;;13.90;1.00;;;;;;7362989;19;20616;-69
2023/03/09 11:41:30;;;;;;;5.25;1.05;;;13.80;1.00;;;;;;7363553;19;20875;-69
2023/03/09 11:44:05;;;;;;;3.63;0.98;;;14.10;1.00;;;;;;7363292;19;20010;-70
2023/03/09 11:46:37;;;;;;;5.20;0.95;;;14.20;1.00;;;;;;7363604;19;20060;-68
2023/03/09 11:49:10;;;;;;;4.15;1.20;;;14.10;1.00;;;;;;7383802;19;20022;-69
2023/03/09 11:51:46;;;;;;;3.70;1.00;;;13.90;1.00;;;;;;7361149;19;20014;-69
2023/03/09 11:54:28;;;;;;;3.67;1.13;;;13.60;1.00;;;;;;7364117;19;20110;-69
2023/03/09 11:57:01;;;;;;;1.98;0.60;;;13.70;1.00;;;;;;7362905;19;20089;-68
2023/03/09 11:59:38;;;;;;;2.33;0.93;;;13.60;1.00;;;;;;7358399;19;20027;-70
2023/03/09 12:02:17;;;;;;;3.10;1.00;;;13.60;1.00;;;;;;7363093;19;20375;-68
2023/03/09 12:04:50;;;;;;;3.38;0.88;;;13.60;1.00;;;;;;7364689;19;20014;-69
2023/03/09 12:07:25;;;;;;;3.33;0.90;;;13.70;1.00;;;;;;7383125;19;20018;-68
2023/03/09 12:10:04;;;;;;;3.17;0.90;;;13.90;1.00;;;;;;7359348;19;20033;-68
2023/03/09 12:12:38;;;;;;;1.10;0.40;;;14.00;1.00;;;;;;7363656;19;20493;-69
2023/03/09 12:15:14;;;;;;;1.17;0.40;;;13.80;1.00;;;;;;7362910;19;20384;-69
2023/03/09 12:17:51;;;;;;;2.55;0.93;;;13.70;1.00;;;;;;7363376;19;20359;-69
2023/03/09 12:20:33;;;;;;;3.20;0.70;;;13.80;1.00;;;;;;7358725;19;20035;-69
2023/03/09 12:23:03;;;;;;;1.58;0.55;;;13.60;1.00;;;;;;7364820;19;20482;-69
2023/03/09 12:25:36;;;;;;;1.42;0.60;;;13.50;1.00;;;;;;7363952;19;20018;-69
2023/03/09 12:28:17;;;;;;;2.00;0.50;;;13.70;1.00;;;;;;7386377;19;20035;-69
2023/03/09 12:30:55;;;;;;;4.07;0.70;;;14.00;1.00;;;;;;7360320;19;20046;-69
2023/03/09 12:34:01;;;;;;;1.73;0.70;;;14.00;1.00;;;;;;7363524;19;20474;-69
2023/03/09 12:36:32;;;;;;;;;;;14.20;1.00;;;;;;7366940;19;20010;-69
2023/03/09 12:39:33;;;;;;;4.25;1.13;;;14.40;1.00;;;;;;7361845;19;19974;-68
2023/03/09 12:42:29;;;;;;;2.97;0.80;;;14.30;1.00;;;;;;7363968;19;20019;-69
2023/03/09 12:45:01;;;;;;;2.63;0.50;;;13.90;1.00;;;;;;7362561;19;20021;-68
2023/03/09 12:47:38;;;;;;;1.17;0.52;;;14.00;1.00;;;;;;7362108;19;20469;-67
2023/03/09 12:50:25;;;;;;;2.28;0.60;;;14.00;1.00;;;;;;7358459;19;20007;-75
2023/03/09 12:53:16;;;;;;;2.38;0.60;;;14.10;1.00;;;;;;7364081;19;20025;-74
2023/03/09 12:55:52;;;;;;;2.92;0.80;;;14.10;1.00;;;;;;7360764;19;20085;-76
2023/03/09 12:58:39;;;;;;;2.72;0.82;;;13.90;1.00;;;;;;7372350;19;20019;-74
2023/03/09 13:01:12;;;;;;;7.82;1.00;;;14.00;1.00;;;;;;7387193;19;20117;-72
2023/03/09 13:03:46;;;;;;;2.17;0.70;;;13.80;1.00;;;;;;7360476;19;20018;-71
2023/03/09 13:06:30;;;;;;;3.10;0.77;;;13.70;1.00;;;;;;7359742;19;20029;-70
2023/03/09 13:09:03;;;;;;;6.10;1.13;;;13.80;1.00;;;;;;7363109;19;20023;-70
2023/03/09 13:11:39;;;;;;;3.13;1.20;;;13.80;1.00;;;;;;7357668;19;20010;-71
2023/03/09 13:14:18;;;;;;;2.78;0.80;;;13.90;1.00;;;;;;7361327;19;20022;-70
2023/03/09 13:16:54;;;;;;;4.50;0.98;;;13.90;1.00;;;;;;7364395;19;20011;-72
2023/03/09 13:19:49;;;;;;;4.30;1.10;;;13.80;1.00;;;;;;7358006;19;20014;-71
2023/03/09 13:22:40;;;;;;;5.85;0.88;;;13.70;1.00;;;;;;7381269;19;20014;-70
2023/03/09 13:25:31;;;;;;;4.20;1.15;;;13.60;1.00;;;;;;7360663;19;20011;-70
2023/03/09 13:28:22;;;;;;;4.95;1.30;;;13.60;1.00;;;;;;7359926;19;20082;-72